Alma, Missouri
Current Conditions -  °F | °C
As of 12:58 PM on Friday 31 Oct 2014 (Local Time) from KSZL Reporting Station
Clear Clear  
Wind Chill:   Ceiling: Unl
Heat Index:   Visibility: 10mi
Dew Point: -7°   Wind: 14mph
Humidity: 38%   Direction: 360°N
Pressure: 30.43"   Gusts: NA
Location:  39.1°N, 93.55°W
Report Text: KSZL 311758Z 36012KT 10SM CLR 07/M07 A3043 RMK AO2A SLP310 T00671068 10067 20025 50003 $
Loading
Personal Weather Stations






























Interactive Weather Map
Tropical Storm Tracking
New forecast layout! Learn more

10-Day Weather Forecast

Advertisements
Track Severe Weather on mobile